<?xml version="1.0" encoding="UTF-8" standalone="no" ?>
<gpx xmlns="http://www.topografix.com/GPX/1/1" xmlns:xsi="http://www.w3.org/2001/XMLSchema-instance" xsi:schemaLocation="http://www.topografix.com/GPX/1/1 http://www.topografix.com/GPX/1/1/gpx.xsd" version="1.1" creator="VisuGPX - https://www.visugpx.com">
  <metadata>
    <name>secteur Saverne - Dabo - Petite Pierre</name>
  </metadata>
  <trk>
    <name><![CDATA[secteur Saverne - Dabo - Petite Pierre_5]]></name>
    <trkseg>
      <trkpt lat="48.67549" lon="7.25984">
        <ele>467.5</ele>
        <time>2020-08-12T06:27:24Z</time>
      </trkpt>
      <trkpt lat="48.67549" lon="7.25984">
        <ele>467.5</ele>
        <time>2020-08-12T06:27:24Z</time>
      </trkpt>
      <trkpt lat="48.67549" lon="7.25984">
        <ele>467.5</ele>
        <time>2020-08-12T06:27:24Z</time>
      </trkpt>
      <trkpt lat="48.67549" lon="7.25984">
        <ele>467.5</ele>
        <time>2020-08-12T06:27:24Z</time>
      </trkpt>
      <trkpt lat="48.67549" lon="7.25984">
        <ele>467.5</ele>
        <time>2020-08-12T06:27:24Z</time>
      </trkpt>
      <trkpt lat="48.67549" lon="7.25984">
        <ele>467.5</ele>
        <time>2020-08-12T06:27:24Z</time>
      </trkpt>
      <trkpt lat="48.67549" lon="7.25984">
        <ele>467.5</ele>
        <time>2020-08-12T06:27:24Z</time>
      </trkpt>
      <trkpt lat="48.67549" lon="7.25984">
        <ele>467.5</ele>
        <time>2020-08-12T06:27:24Z</time>
      </trkpt>
      <trkpt lat="48.67549" lon="7.25984">
        <ele>467.5</ele>
        <time>2020-08-12T06:27:24Z</time>
      </trkpt>
      <trkpt lat="48.67544" lon="7.2598">
        <ele>469.1</ele>
        <time>2020-08-12T06:27:32Z</time>
      </trkpt>
      <trkpt lat="48.67539" lon="7.25974">
        <ele>470</ele>
        <time>2020-08-12T06:27:35Z</time>
      </trkpt>
      <trkpt lat="48.67535" lon="7.25971">
        <ele>470.5</ele>
        <time>2020-08-12T06:27:37Z</time>
      </trkpt>
      <trkpt lat="48.6753" lon="7.25968">
        <ele>471.2</ele>
        <time>2020-08-12T06:27:40Z</time>
      </trkpt>
      <trkpt lat="48.67525" lon="7.25964">
        <ele>471.1</ele>
        <time>2020-08-12T06:27:43Z</time>
      </trkpt>
      <trkpt lat="48.6752" lon="7.25961">
        <ele>471.9</ele>
        <time>2020-08-12T06:27:46Z</time>
      </trkpt>
      <trkpt lat="48.67515" lon="7.25958">
        <ele>472.7</ele>
        <time>2020-08-12T06:27:49Z</time>
      </trkpt>
      <trkpt lat="48.6751" lon="7.25956">
        <ele>473.4</ele>
        <time>2020-08-12T06:27:51Z</time>
      </trkpt>
      <trkpt lat="48.67506" lon="7.25955">
        <ele>473.7</ele>
        <time>2020-08-12T06:27:53Z</time>
      </trkpt>
      <trkpt lat="48.675" lon="7.25952">
        <ele>473.9</ele>
        <time>2020-08-12T06:27:56Z</time>
      </trkpt>
      <trkpt lat="48.67494" lon="7.25948">
        <ele>475.3</ele>
        <time>2020-08-12T06:28:00Z</time>
      </trkpt>
      <trkpt lat="48.6749" lon="7.25945">
        <ele>477.6</ele>
        <time>2020-08-12T06:28:03Z</time>
      </trkpt>
      <trkpt lat="48.67486" lon="7.2594">
        <ele>479.7</ele>
        <time>2020-08-12T06:28:06Z</time>
      </trkpt>
      <trkpt lat="48.6748" lon="7.25934">
        <ele>480.5</ele>
        <time>2020-08-12T06:28:09Z</time>
      </trkpt>
      <trkpt lat="48.67475" lon="7.2593">
        <ele>480.2</ele>
        <time>2020-08-12T06:28:12Z</time>
      </trkpt>
      <trkpt lat="48.6747" lon="7.25926">
        <ele>479.9</ele>
        <time>2020-08-12T06:28:14Z</time>
      </trkpt>
      <trkpt lat="48.67466" lon="7.25923">
        <ele>479.8</ele>
        <time>2020-08-12T06:28:16Z</time>
      </trkpt>
      <trkpt lat="48.67461" lon="7.25922">
        <ele>480</ele>
        <time>2020-08-12T06:28:19Z</time>
      </trkpt>
      <trkpt lat="48.67455" lon="7.2592">
        <ele>480</ele>
        <time>2020-08-12T06:28:23Z</time>
      </trkpt>
      <trkpt lat="48.6745" lon="7.25919">
        <ele>480.3</ele>
        <time>2020-08-12T06:28:26Z</time>
      </trkpt>
      <trkpt lat="48.67444" lon="7.25917">
        <ele>481</ele>
        <time>2020-08-12T06:28:29Z</time>
      </trkpt>
      <trkpt lat="48.67439" lon="7.25915">
        <ele>481.3</ele>
        <time>2020-08-12T06:28:32Z</time>
      </trkpt>
      <trkpt lat="48.67433" lon="7.25912">
        <ele>481.1</ele>
        <time>2020-08-12T06:28:35Z</time>
      </trkpt>
      <trkpt lat="48.67426" lon="7.25908">
        <ele>481.5</ele>
        <time>2020-08-12T06:28:38Z</time>
      </trkpt>
      <trkpt lat="48.67422" lon="7.25905">
        <ele>482.5</ele>
        <time>2020-08-12T06:28:40Z</time>
      </trkpt>
      <trkpt lat="48.67418" lon="7.25902">
        <ele>483.4</ele>
        <time>2020-08-12T06:28:42Z</time>
      </trkpt>
      <trkpt lat="48.67414" lon="7.259">
        <ele>483.6</ele>
        <time>2020-08-12T06:28:44Z</time>
      </trkpt>
      <trkpt lat="48.67409" lon="7.25897">
        <ele>484</ele>
        <time>2020-08-12T06:28:46Z</time>
      </trkpt>
      <trkpt lat="48.67403" lon="7.25897">
        <ele>484.7</ele>
        <time>2020-08-12T06:28:48Z</time>
      </trkpt>
      <trkpt lat="48.67397" lon="7.25896">
        <ele>485.9</ele>
        <time>2020-08-12T06:28:51Z</time>
      </trkpt>
      <trkpt lat="48.67392" lon="7.25895">
        <ele>486.7</ele>
        <time>2020-08-12T06:28:53Z</time>
      </trkpt>
      <trkpt lat="48.67386" lon="7.25893">
        <ele>488.5</ele>
        <time>2020-08-12T06:28:56Z</time>
      </trkpt>
      <trkpt lat="48.67383" lon="7.25889">
        <ele>489</ele>
        <time>2020-08-12T06:28:59Z</time>
      </trkpt>
      <trkpt lat="48.67377" lon="7.25886">
        <ele>489.4</ele>
        <time>2020-08-12T06:29:02Z</time>
      </trkpt>
      <trkpt lat="48.67371" lon="7.25886">
        <ele>490.3</ele>
        <time>2020-08-12T06:29:05Z</time>
      </trkpt>
      <trkpt lat="48.67365" lon="7.25886">
        <ele>491.8</ele>
        <time>2020-08-12T06:29:08Z</time>
      </trkpt>
      <trkpt lat="48.67359" lon="7.25884">
        <ele>492.1</ele>
        <time>2020-08-12T06:29:11Z</time>
      </trkpt>
      <trkpt lat="48.67354" lon="7.25884">
        <ele>493.1</ele>
        <time>2020-08-12T06:29:13Z</time>
      </trkpt>
      <trkpt lat="48.67348" lon="7.25884">
        <ele>494.2</ele>
        <time>2020-08-12T06:29:16Z</time>
      </trkpt>
      <trkpt lat="48.67343" lon="7.25883">
        <ele>495.1</ele>
        <time>2020-08-12T06:29:18Z</time>
      </trkpt>
      <trkpt lat="48.67338" lon="7.25884">
        <ele>495.6</ele>
        <time>2020-08-12T06:29:20Z</time>
      </trkpt>
      <trkpt lat="48.67333" lon="7.25885">
        <ele>496.8</ele>
        <time>2020-08-12T06:29:22Z</time>
      </trkpt>
      <trkpt lat="48.67326" lon="7.25884">
        <ele>497.4</ele>
        <time>2020-08-12T06:29:25Z</time>
      </trkpt>
      <trkpt lat="48.67322" lon="7.25882">
        <ele>497.7</ele>
        <time>2020-08-12T06:29:27Z</time>
      </trkpt>
      <trkpt lat="48.67317" lon="7.25879">
        <ele>497.9</ele>
        <time>2020-08-12T06:29:30Z</time>
      </trkpt>
      <trkpt lat="48.67312" lon="7.25877">
        <ele>497.6</ele>
        <time>2020-08-12T06:29:33Z</time>
      </trkpt>
      <trkpt lat="48.67306" lon="7.25873">
        <ele>496.8</ele>
        <time>2020-08-12T06:29:36Z</time>
      </trkpt>
      <trkpt lat="48.67301" lon="7.25868">
        <ele>496.7</ele>
        <time>2020-08-12T06:29:38Z</time>
      </trkpt>
      <trkpt lat="48.67296" lon="7.25863">
        <ele>496.1</ele>
        <time>2020-08-12T06:29:40Z</time>
      </trkpt>
      <trkpt lat="48.67292" lon="7.25858">
        <ele>496.7</ele>
        <time>2020-08-12T06:29:42Z</time>
      </trkpt>
      <trkpt lat="48.67288" lon="7.25852">
        <ele>495.3</ele>
        <time>2020-08-12T06:29:44Z</time>
      </trkpt>
      <trkpt lat="48.67285" lon="7.25847">
        <ele>494.7</ele>
        <time>2020-08-12T06:29:46Z</time>
      </trkpt>
      <trkpt lat="48.67281" lon="7.2584">
        <ele>493.5</ele>
        <time>2020-08-12T06:29:49Z</time>
      </trkpt>
      <trkpt lat="48.67278" lon="7.25833">
        <ele>492.8</ele>
        <time>2020-08-12T06:29:51Z</time>
      </trkpt>
      <trkpt lat="48.67275" lon="7.25827">
        <ele>492.2</ele>
        <time>2020-08-12T06:29:53Z</time>
      </trkpt>
      <trkpt lat="48.67271" lon="7.25821">
        <ele>492</ele>
        <time>2020-08-12T06:29:55Z</time>
      </trkpt>
      <trkpt lat="48.67267" lon="7.25813">
        <ele>491.9</ele>
        <time>2020-08-12T06:29:58Z</time>
      </trkpt>
      <trkpt lat="48.67264" lon="7.25804">
        <ele>492.6</ele>
        <time>2020-08-12T06:30:01Z</time>
      </trkpt>
      <trkpt lat="48.67262" lon="7.25797">
        <ele>492.8</ele>
        <time>2020-08-12T06:30:03Z</time>
      </trkpt>
      <trkpt lat="48.67259" lon="7.25788">
        <ele>493.6</ele>
        <time>2020-08-12T06:30:05Z</time>
      </trkpt>
      <trkpt lat="48.67256" lon="7.25778">
        <ele>493.9</ele>
        <time>2020-08-12T06:30:07Z</time>
      </trkpt>
      <trkpt lat="48.67252" lon="7.25768">
        <ele>494.7</ele>
        <time>2020-08-12T06:30:09Z</time>
      </trkpt>
      <trkpt lat="48.6725" lon="7.25759">
        <ele>495.9</ele>
        <time>2020-08-12T06:30:11Z</time>
      </trkpt>
      <trkpt lat="48.67248" lon="7.25752">
        <ele>496.9</ele>
        <time>2020-08-12T06:30:13Z</time>
      </trkpt>
      <trkpt lat="48.67248" lon="7.25741">
        <ele>498</ele>
        <time>2020-08-12T06:30:16Z</time>
      </trkpt>
      <trkpt lat="48.67247" lon="7.25732">
        <ele>498.5</ele>
        <time>2020-08-12T06:30:18Z</time>
      </trkpt>
      <trkpt lat="48.67245" lon="7.25723">
        <ele>499.1</ele>
        <time>2020-08-12T06:30:20Z</time>
      </trkpt>
      <trkpt lat="48.67244" lon="7.25714">
        <ele>500.1</ele>
        <time>2020-08-12T06:30:22Z</time>
      </trkpt>
      <trkpt lat="48.67243" lon="7.25704">
        <ele>500.5</ele>
        <time>2020-08-12T06:30:24Z</time>
      </trkpt>
      <trkpt lat="48.67241" lon="7.25693">
        <ele>501.7</ele>
        <time>2020-08-12T06:30:26Z</time>
      </trkpt>
      <trkpt lat="48.67239" lon="7.25683">
        <ele>502.5</ele>
        <time>2020-08-12T06:30:28Z</time>
      </trkpt>
      <trkpt lat="48.67238" lon="7.25675">
        <ele>503.1</ele>
        <time>2020-08-12T06:30:30Z</time>
      </trkpt>
      <trkpt lat="48.67235" lon="7.25668">
        <ele>504.6</ele>
        <time>2020-08-12T06:30:32Z</time>
      </trkpt>
      <trkpt lat="48.67234" lon="7.25661">
        <ele>506</ele>
        <time>2020-08-12T06:30:34Z</time>
      </trkpt>
      <trkpt lat="48.67233" lon="7.25652">
        <ele>506.4</ele>
        <time>2020-08-12T06:30:36Z</time>
      </trkpt>
      <trkpt lat="48.67232" lon="7.25643">
        <ele>507.2</ele>
        <time>2020-08-12T06:30:38Z</time>
      </trkpt>
      <trkpt lat="48.67231" lon="7.25635">
        <ele>507.9</ele>
        <time>2020-08-12T06:30:40Z</time>
      </trkpt>
      <trkpt lat="48.6723" lon="7.25627">
        <ele>508.5</ele>
        <time>2020-08-12T06:30:42Z</time>
      </trkpt>
      <trkpt lat="48.67229" lon="7.25619">
        <ele>510.1</ele>
        <time>2020-08-12T06:30:44Z</time>
      </trkpt>
      <trkpt lat="48.67228" lon="7.2561">
        <ele>510.9</ele>
        <time>2020-08-12T06:30:46Z</time>
      </trkpt>
      <trkpt lat="48.67228" lon="7.25601">
        <ele>512</ele>
        <time>2020-08-12T06:30:49Z</time>
      </trkpt>
      <trkpt lat="48.67227" lon="7.25594">
        <ele>516</ele>
        <time>2020-08-12T06:31:07Z</time>
      </trkpt>
      <trkpt lat="48.67229" lon="7.25586">
        <ele>515.8</ele>
        <time>2020-08-12T06:31:10Z</time>
      </trkpt>
      <trkpt lat="48.67232" lon="7.25578">
        <ele>514.8</ele>
        <time>2020-08-12T06:31:13Z</time>
      </trkpt>
      <trkpt lat="48.67235" lon="7.25569">
        <ele>513.9</ele>
        <time>2020-08-12T06:31:15Z</time>
      </trkpt>
      <trkpt lat="48.67236" lon="7.25558">
        <ele>512.5</ele>
        <time>2020-08-12T06:31:17Z</time>
      </trkpt>
      <trkpt lat="48.67238" lon="7.25547">
        <ele>511</ele>
        <time>2020-08-12T06:31:19Z</time>
      </trkpt>
      <trkpt lat="48.67241" lon="7.25535">
        <ele>510.2</ele>
        <time>2020-08-12T06:31:21Z</time>
      </trkpt>
      <trkpt lat="48.67245" lon="7.25525">
        <ele>509.9</ele>
        <time>2020-08-12T06:31:23Z</time>
      </trkpt>
      <trkpt lat="48.67251" lon="7.25516">
        <ele>509.6</ele>
        <time>2020-08-12T06:31:25Z</time>
      </trkpt>
      <trkpt lat="48.67255" lon="7.25508">
        <ele>509.3</ele>
        <time>2020-08-12T06:31:27Z</time>
      </trkpt>
      <trkpt lat="48.67259" lon="7.25501">
        <ele>508.8</ele>
        <time>2020-08-12T06:31:29Z</time>
      </trkpt>
      <trkpt lat="48.67264" lon="7.25496">
        <ele>508.4</ele>
        <time>2020-08-12T06:31:31Z</time>
      </trkpt>
      <trkpt lat="48.67267" lon="7.25491">
        <ele>508.4</ele>
        <time>2020-08-12T06:31:33Z</time>
      </trkpt>
      <trkpt lat="48.6727" lon="7.25485">
        <ele>508.7</ele>
        <time>2020-08-12T06:31:39Z</time>
      </trkpt>
      <trkpt lat="48.67274" lon="7.25478">
        <ele>508</ele>
        <time>2020-08-12T06:31:48Z</time>
      </trkpt>
      <trkpt lat="48.67278" lon="7.25474">
        <ele>507.8</ele>
        <time>2020-08-12T06:31:50Z</time>
      </trkpt>
      <trkpt lat="48.67282" lon="7.25469">
        <ele>507.2</ele>
        <time>2020-08-12T06:31:52Z</time>
      </trkpt>
      <trkpt lat="48.67284" lon="7.25462">
        <ele>506.1</ele>
        <time>2020-08-12T06:31:54Z</time>
      </trkpt>
      <trkpt lat="48.67287" lon="7.25455">
        <ele>505.9</ele>
        <time>2020-08-12T06:31:56Z</time>
      </trkpt>
      <trkpt lat="48.67291" lon="7.25448">
        <ele>505.6</ele>
        <time>2020-08-12T06:31:58Z</time>
      </trkpt>
      <trkpt lat="48.67295" lon="7.2544">
        <ele>505.3</ele>
        <time>2020-08-12T06:32:00Z</time>
      </trkpt>
      <trkpt lat="48.67298" lon="7.25433">
        <ele>505.1</ele>
        <time>2020-08-12T06:32:02Z</time>
      </trkpt>
      <trkpt lat="48.673" lon="7.25426">
        <ele>503</ele>
        <time>2020-08-12T06:32:04Z</time>
      </trkpt>
      <trkpt lat="48.67301" lon="7.25416">
        <ele>502.7</ele>
        <time>2020-08-12T06:32:07Z</time>
      </trkpt>
      <trkpt lat="48.67301" lon="7.25407">
        <ele>502.5</ele>
        <time>2020-08-12T06:32:10Z</time>
      </trkpt>
      <trkpt lat="48.67298" lon="7.254">
        <ele>502.2</ele>
        <time>2020-08-12T06:32:15Z</time>
      </trkpt>
      <trkpt lat="48.67299" lon="7.25392">
        <ele>502.9</ele>
        <time>2020-08-12T06:32:22Z</time>
      </trkpt>
      <trkpt lat="48.673" lon="7.25384">
        <ele>502.7</ele>
        <time>2020-08-12T06:32:24Z</time>
      </trkpt>
      <trkpt lat="48.673" lon="7.25374">
        <ele>502.6</ele>
        <time>2020-08-12T06:32:26Z</time>
      </trkpt>
      <trkpt lat="48.67302" lon="7.25365">
        <ele>501.9</ele>
        <time>2020-08-12T06:32:28Z</time>
      </trkpt>
      <trkpt lat="48.67305" lon="7.25355">
        <ele>501</ele>
        <time>2020-08-12T06:32:30Z</time>
      </trkpt>
      <trkpt lat="48.67306" lon="7.25346">
        <ele>500.8</ele>
        <time>2020-08-12T06:32:32Z</time>
      </trkpt>
      <trkpt lat="48.67306" lon="7.25339">
        <ele>499</ele>
        <time>2020-08-12T06:32:37Z</time>
      </trkpt>
      <trkpt lat="48.67307" lon="7.25329">
        <ele>498.9</ele>
        <time>2020-08-12T06:32:54Z</time>
      </trkpt>
      <trkpt lat="48.67307" lon="7.25321">
        <ele>499.3</ele>
        <time>2020-08-12T06:32:56Z</time>
      </trkpt>
      <trkpt lat="48.67308" lon="7.25312">
        <ele>498.3</ele>
        <time>2020-08-12T06:32:59Z</time>
      </trkpt>
      <trkpt lat="48.67307" lon="7.25304">
        <ele>498.3</ele>
        <time>2020-08-12T06:33:02Z</time>
      </trkpt>
      <trkpt lat="48.67306" lon="7.25294">
        <ele>497.9</ele>
        <time>2020-08-12T06:33:05Z</time>
      </trkpt>
      <trkpt lat="48.67306" lon="7.25285">
        <ele>497.8</ele>
        <time>2020-08-12T06:33:08Z</time>
      </trkpt>
      <trkpt lat="48.67305" lon="7.25278">
        <ele>496.4</ele>
        <time>2020-08-12T06:33:10Z</time>
      </trkpt>
      <trkpt lat="48.67303" lon="7.25271">
        <ele>495.7</ele>
        <time>2020-08-12T06:33:12Z</time>
      </trkpt>
      <trkpt lat="48.67301" lon="7.25264">
        <ele>494.4</ele>
        <time>2020-08-12T06:33:14Z</time>
      </trkpt>
    </trkseg>
  </trk>
</gpx>